Time;durP1;ratioP1;P1;durP2;ratioP2;P2;SDS_P1;SDS_P2;PMS_P1;PMS_P2;Temp;Humidity;BMP_temperature;BMP_pressure;BME280_temperature;BME280_humidity;BME280_pressure;Samples;Min_cycle;Max_cycle;Signal;HPM_P1;HPM_P2
2022/03/10 00:00:11;;;;;;;18.17;10.07;;;3.10;99.90;;;;;;4844397;29;20042;-78
2022/03/10 00:02:36;;;;;;;21.65;11.07;;;3.00;99.90;;;;;;4844653;29;20072;-78
2022/03/10 00:05:03;;;;;;;21.65;11.02;;;3.00;99.90;;;;;;4847026;29;20518;-79
2022/03/10 00:07:28;;;;;;;19.73;10.57;;;2.90;99.90;;;;;;4844251;29;20081;-79
2022/03/10 00:09:54;;;;;;;17.38;9.45;;;3.90;99.90;;;;;;4844312;29;20141;-79
2022/03/10 00:12:20;;;;;;;18.65;10.10;;;3.60;99.90;;;;;;4844237;29;20049;-79
2022/03/10 00:14:46;;;;;;;20.02;10.00;;;2.70;99.90;;;;;;4844327;29;20042;-79
2022/03/10 00:17:12;;;;;;;21.98;9.70;;;3.00;99.90;;;;;;4844084;29;20080;-79
2022/03/10 00:19:37;;;;;;;18.45;9.57;;;2.60;99.90;;;;;;4844336;29;20110;-79
2022/03/10 00:22:03;;;;;;;19.88;9.82;;;2.60;99.90;;;;;;4844135;29;20510;-79
2022/03/10 00:24:29;;;;;;;16.25;9.50;;;2.50;99.90;;;;;;4844261;29;20052;-79
2022/03/10 00:26:55;;;;;;;17.52;9.20;;;2.50;99.90;;;;;;4844044;29;20058;-78
2022/03/10 00:29:21;;;;;;;17.92;9.88;;;2.40;99.90;;;;;;4843704;29;20129;-79
2022/03/10 00:31:46;;;;;;;17.58;9.65;;;2.40;99.90;;;;;;4843797;29;20042;-79
2022/03/10 00:34:12;;;;;;;17.50;9.60;;;2.80;99.90;;;;;;4843096;29;20038;-79
2022/03/10 00:36:38;;;;;;;21.35;10.60;;;2.30;99.90;;;;;;4843640;29;20096;-78
2022/03/10 00:39:04;;;;;;;18.38;10.27;;;2.30;99.90;;;;;;4827494;29;20077;-76
2022/03/10 00:41:30;;;;;;;18.20;9.25;;;2.20;99.90;;;;;;4827544;29;20046;-78
2022/03/10 00:43:55;;;;;;;19.40;9.55;;;2.20;99.90;;;;;;4843541;29;20077;-79
2022/03/10 00:46:21;;;;;;;21.92;10.07;;;2.20;99.90;;;;;;4843742;29;20046;-78
2022/03/10 00:48:47;;;;;;;19.25;9.63;;;2.20;99.90;;;;;;4827026;29;20053;-78
2022/03/10 00:51:12;;;;;;;18.42;10.00;;;2.20;99.90;;;;;;4827525;29;20081;-79
2022/03/10 00:53:38;;;;;;;17.80;10.30;;;2.10;99.90;;;;;;4843624;29;20046;-79
2022/03/10 00:56:04;;;;;;;19.42;10.05;;;2.10;99.90;;;;;;4843832;29;20066;-78
2022/03/10 00:58:30;;;;;;;20.60;10.15;;;2.60;99.90;;;;;;4849395;29;20042;-79
2022/03/10 01:00:55;;;;;;;22.50;10.48;;;2.10;99.90;;;;;;4847894;29;20483;-76
2022/03/10 01:03:21;;;;;;;21.77;10.30;;;2.10;99.90;;;;;;4846617;29;20046;-80
2022/03/10 01:05:47;;;;;;;19.08;9.95;;;2.00;99.90;;;;;;4846909;29;20452;-78
2022/03/10 01:08:13;;;;;;;19.05;9.90;;;1.80;99.90;;;;;;4843750;29;20134;-79
2022/03/10 01:10:39;;;;;;;19.70;10.43;;;1.70;99.90;;;;;;4843815;29;20478;-79
2022/03/10 01:13:12;;;;;;;18.08;9.15;;;1.60;99.90;;;;;;4843380;29;20541;-77
2022/03/10 01:15:38;;;;;;;17.90;8.60;;;1.50;99.90;;;;;;4842901;29;20046;-77
2022/03/10 01:18:04;;;;;;;18.88;8.63;;;1.50;99.90;;;;;;4842871;29;20057;-77
2022/03/10 01:20:29;;;;;;;20.08;8.80;;;2.60;99.90;;;;;;4857285;29;20065;-77
2022/03/10 01:22:55;;;;;;;17.88;8.18;;;1.40;99.90;;;;;;4843296;29;20129;-76
2022/03/10 01:25:21;;;;;;;18.25;8.82;;;1.40;99.90;;;;;;4842129;29;20414;-77
2022/03/10 01:27:47;;;;;;;18.00;8.00;;;1.40;99.90;;;;;;4843108;29;20102;-77
2022/03/10 01:30:13;;;;;;;19.48;9.15;;;1.40;99.90;;;;;;4842745;29;20117;-77
2022/03/10 01:32:39;;;;;;;19.50;9.07;;;1.30;99.90;;;;;;4842479;29;20505;-77
2022/03/10 01:35:06;;;;;;;18.33;9.00;;;1.30;99.90;;;;;;4826662;29;20094;-77
2022/03/10 01:37:37;;;;;;;19.95;8.30;;;1.30;99.90;;;;;;4826541;29;20054;-76
2022/03/10 01:40:08;;;;;;;16.50;8.35;;;1.20;99.90;;;;;;4842912;29;20447;-77
2022/03/10 01:42:34;;;;;;;17.35;8.27;;;1.20;99.90;;;;;;4856966;29;20085;-77
2022/03/10 01:45:00;;;;;;;16.67;8.38;;;1.20;99.90;;;;;;4842725;29;20050;-77
2022/03/10 01:47:26;;;;;;;18.27;8.43;;;1.20;99.90;;;;;;4840717;29;20046;-77
2022/03/10 01:49:51;;;;;;;20.02;8.88;;;1.90;99.90;;;;;;4842497;29;20054;-76
2022/03/10 01:52:19;;;;;;;20.85;8.65;;;1.20;99.90;;;;;;4856854;29;20054;-77
2022/03/10 01:54:45;;;;;;;19.67;9.27;;;1.30;99.90;;;;;;4842519;29;20113;-77
2022/03/10 01:57:12;;;;;;;18.33;8.35;;;1.30;99.90;;;;;;4842720;29;20111;-78
2022/03/10 01:59:39;;;;;;;16.83;8.02;;;1.30;99.90;;;;;;4842154;29;20054;-77
2022/03/10 02:02:06;;;;;;;18.77;8.45;;;1.30;99.90;;;;;;4841877;29;20054;-77
2022/03/10 02:04:32;;;;;;;19.45;8.52;;;1.40;99.90;;;;;;4842611;29;20045;-77
2022/03/10 02:06:58;;;;;;;18.10;8.20;;;1.40;99.90;;;;;;4826088;29;20046;-77
2022/03/10 02:12:08;;;;;;;18.48;8.50;;;1.50;99.90;;;;;;4842143;29;20054;-77
2022/03/10 02:17:21;;;;;;;21.02;9.15;;;1.50;99.90;;;;;;4841857;29;20061;-77
2022/03/10 02:19:53;;;;;;;17.98;9.10;;;1.50;99.90;;;;;;4842093;29;20054;-77
2022/03/10 02:22:21;;;;;;;16.13;7.22;;;1.60;99.90;;;;;;4842108;29;20046;-77
2022/03/10 02:24:47;;;;;;;18.65;9.00;;;1.50;99.90;;;;;;4842214;29;20140;-77
2022/03/10 02:27:27;;;;;;;21.88;9.48;;;1.60;99.90;;;;;;4842079;29;20042;-77
2022/03/10 02:30:01;;;;;;;18.77;8.10;;;1.50;99.90;;;;;;4842379;29;20498;-77
2022/03/10 02:32:26;;;;;;;17.65;8.45;;;1.50;99.90;;;;;;4840906;29;20399;-77
2022/03/10 02:34:52;;;;;;;19.67;8.43;;;2.50;99.90;;;;;;4840851;29;20053;-76
2022/03/10 02:37:18;;;;;;;20.45;8.65;;;1.60;99.90;;;;;;4842059;29;20502;-77
2022/03/10 02:39:45;;;;;;;16.67;8.38;;;1.60;99.90;;;;;;4841722;29;20046;-79
2022/03/10 02:42:15;;;;;;;18.60;9.15;;;1.60;99.90;;;;;;4841743;29;20053;-80
2022/03/10 02:44:43;;;;;;;19.05;9.80;;;1.60;99.90;;;;;;4842040;29;20406;-76
2022/03/10 02:47:09;;;;;;;20.20;10.95;;;1.60;99.90;;;;;;4825820;29;20407;-77
2022/03/10 02:49:35;;;;;;;21.00;10.52;;;1.70;99.90;;;;;;4841586;29;20041;-77
2022/03/10 02:52:03;;;;;;;18.73;9.55;;;1.60;99.90;;;;;;4841947;29;20099;-76
2022/03/10 02:54:29;;;;;;;18.30;10.23;;;1.70;99.90;;;;;;4841439;29;20065;-77
2022/03/10 02:56:55;;;;;;;18.90;10.05;;;1.70;99.90;;;;;;4841659;29;20049;-76
2022/03/10 02:59:20;;;;;;;18.67;8.95;;;1.70;99.90;;;;;;4842008;29;20568;-78
2022/03/10 03:01:46;;;;;;;18.60;9.82;;;1.70;99.90;;;;;;4841977;29;20085;-76
2022/03/10 03:04:11;;;;;;;19.58;10.15;;;2.70;99.90;;;;;;4825199;29;20177;-76
2022/03/10 03:06:37;;;;;;;20.10;9.82;;;1.70;99.90;;;;;;4841585;29;20102;-77
2022/03/10 03:09:03;;;;;;;19.95;10.38;;;1.70;99.90;;;;;;4825427;29;20426;-76
2022/03/10 03:11:29;;;;;;;19.15;10.02;;;1.70;99.90;;;;;;4841469;29;20077;-78
2022/03/10 03:13:56;;;;;;;20.05;9.85;;;1.70;99.90;;;;;;4841859;29;20050;-77
2022/03/10 03:16:25;;;;;;;19.73;10.10;;;1.60;99.90;;;;;;4841779;29;20126;-78
2022/03/10 03:18:51;;;;;;;17.77;9.60;;;1.60;99.90;;;;;;4841718;29;20046;-77
2022/03/10 03:21:17;;;;;;;17.38;9.35;;;1.60;99.90;;;;;;4844614;29;20046;-77
2022/03/10 03:23:43;;;;;;;20.42;10.15;;;1.60;99.90;;;;;;4845044;29;20073;-77
2022/03/10 03:26:09;;;;;;;20.52;10.27;;;1.60;99.90;;;;;;4844931;29;20049;-77
2022/03/10 03:28:34;;;;;;;20.65;9.73;;;1.50;99.90;;;;;;4845272;29;20531;-77
2022/03/10 03:31:00;;;;;;;17.60;9.25;;;1.50;99.90;;;;;;4844994;29;20053;-78
2022/03/10 03:33:26;;;;;;;18.58;9.30;;;1.50;99.90;;;;;;4845282;29;20050;-77
2022/03/10 03:35:51;;;;;;;19.17;10.18;;;1.50;99.90;;;;;;4844617;29;20509;-77
2022/03/10 03:38:17;;;;;;;18.73;10.70;;;1.50;99.90;;;;;;4844680;29;20080;-76
2022/03/10 03:40:43;;;;;;;19.17;9.57;;;1.40;99.90;;;;;;4844741;29;20056;-77
2022/03/10 03:43:08;;;;;;;21.63;10.88;;;1.40;99.90;;;;;;4844908;29;20095;-77
2022/03/10 03:45:34;;;;;;;22.33;11.00;;;1.40;99.90;;;;;;4844928;29;20499;-77
2022/03/10 03:48:00;;;;;;;18.38;10.23;;;1.30;99.90;;;;;;4844841;29;20061;-77
2022/03/10 03:50:25;;;;;;;20.73;10.85;;;1.30;99.90;;;;;;4844629;29;20033;-78
2022/03/10 03:52:51;;;;;;;18.30;9.90;;;1.30;99.90;;;;;;4827689;29;20061;-77
2022/03/10 03:55:16;;;;;;;22.58;10.10;;;2.50;99.90;;;;;;4844200;29;20411;-77
2022/03/10 03:57:42;;;;;;;18.67;10.50;;;1.20;99.90;;;;;;4844657;29;20054;-77
2022/03/10 04:00:10;;;;;;;19.27;9.85;;;1.20;99.90;;;;;;4844688;29;20136;-78
2022/03/10 04:02:36;;;;;;;21.00;10.25;;;1.20;99.90;;;;;;4843411;29;20061;-76
2022/03/10 04:05:03;;;;;;;18.10;9.65;;;1.20;99.90;;;;;;4843163;29;20058;-78
2022/03/10 04:07:28;;;;;;;18.77;10.23;;;1.20;99.90;;;;;;4858165;29;20495;-78
2022/03/10 04:09:54;;;;;;;19.00;10.05;;;1.20;99.90;;;;;;4844589;29;20049;-78
2022/03/10 04:12:19;;;;;;;19.02;9.82;;;1.10;99.90;;;;;;4844053;29;20050;-78
2022/03/10 04:14:45;;;;;;;20.55;10.73;;;1.00;99.90;;;;;;4844389;29;20095;-78
2022/03/10 04:17:11;;;;;;;18.27;9.93;;;1.00;99.90;;;;;;4827914;29;20049;-78
2022/03/10 04:19:36;;;;;;;19.23;10.65;;;0.90;99.90;;;;;;4844299;29;20042;-78
2022/03/10 04:22:03;;;;;;;21.58;10.95;;;1.70;99.90;;;;;;4844196;29;20049;-78
2022/03/10 04:24:29;;;;;;;21.38;11.00;;;0.80;99.90;;;;;;4843880;29;20050;-77
2022/03/10 04:26:55;;;;;;;20.58;10.57;;;0.90;99.90;;;;;;4844149;29;20049;-76
2022/03/10 04:29:20;;;;;;;20.60;10.88;;;1.90;99.90;;;;;;4844091;29;20053;-76
2022/03/10 04:31:46;;;;;;;20.05;10.15;;;0.70;99.90;;;;;;4843054;29;20106;-77
2022/03/10 04:34:12;;;;;;;20.88;10.55;;;0.70;99.90;;;;;;4827629;29;20050;-77
2022/03/10 04:36:37;;;;;;;19.55;10.43;;;0.70;99.90;;;;;;4812612;29;20132;-77
2022/03/10 04:39:04;;;;;;;20.05;9.80;;;0.60;99.90;;;;;;4843502;29;20044;-73
2022/03/10 04:41:30;;;;;;;21.73;9.07;;;0.50;99.90;;;;;;4843864;29;20178;-77
2022/03/10 04:43:56;;;;;;;19.02;9.05;;;0.50;99.90;;;;;;4843730;29;20494;-76
2022/03/10 04:46:22;;;;;;;19.50;8.60;;;0.50;99.90;;;;;;4843453;29;20042;-77
2022/03/10 04:48:48;;;;;;;17.63;8.05;;;0.40;99.90;;;;;;4843504;29;20179;-77
2022/03/10 04:51:14;;;;;;;17.48;8.43;;;0.40;99.90;;;;;;4857893;29;20137;-77
2022/03/10 04:53:40;;;;;;;18.52;7.95;;;0.40;99.90;;;;;;4841927;29;20053;-78
2022/03/10 04:56:06;;;;;;;17.50;7.75;;;0.40;99.90;;;;;;4843067;29;20057;-77
2022/03/10 04:58:32;;;;;;;18.48;7.57;;;1.10;99.90;;;;;;4843394;29;20046;-76
2022/03/10 05:00:57;;;;;;;16.95;7.38;;;0.40;99.90;;;;;;4857748;29;20050;-77
2022/03/10 05:03:23;;;;;;;15.20;7.50;;;0.40;99.90;;;;;;4843394;29;20046;-76
2022/03/10 05:05:48;;;;;;;19.25;7.90;;;0.40;99.90;;;;;;4843418;29;20064;-77
2022/03/10 05:08:14;;;;;;;17.20;7.55;;;0.40;99.90;;;;;;4843401;29;20045;-76
2022/03/10 05:10:40;;;;;;;18.95;7.70;;;0.40;99.90;;;;;;4843049;29;20487;-76
2022/03/10 05:13:05;;;;;;;18.90;7.90;;;0.40;99.90;;;;;;4843083;29;20045;-77
2022/03/10 05:15:33;;;;;;;17.98;7.05;;;0.50;99.90;;;;;;4843255;29;20050;-77
2022/03/10 05:18:01;;;;;;;19.35;8.13;;;0.50;99.90;;;;;;4844004;29;20137;-75
2022/03/10 05:20:27;;;;;;;21.05;8.43;;;0.50;99.90;;;;;;4844602;29;20056;-76
2022/03/10 05:22:55;;;;;;;19.45;7.72;;;0.50;99.90;;;;;;4843748;29;20097;-77
2022/03/10 05:25:23;;;;;;;17.15;7.72;;;0.50;99.90;;;;;;4843759;29;20467;-77
2022/03/10 05:27:50;;;;;;;18.88;7.43;;;0.50;99.90;;;;;;4826434;29;20114;-77
2022/03/10 05:30:17;;;;;;;17.48;7.13;;;0.50;99.90;;;;;;4841686;29;20069;-76
2022/03/10 05:32:44;;;;;;;21.00;7.82;;;0.40;99.90;;;;;;4826700;29;20056;-76
2022/03/10 05:35:14;;;;;;;17.50;7.70;;;0.40;99.90;;;;;;4842892;29;20132;-77
2022/03/10 05:37:41;;;;;;;20.48;7.45;;;0.40;99.90;;;;;;4842841;29;20041;-77
2022/03/10 05:40:12;;;;;;;16.48;6.80;;;0.40;99.90;;;;;;4842766;29;20495;-76
2022/03/10 05:42:39;;;;;;;19.80;7.82;;;0.40;99.90;;;;;;4841923;29;20054;-77
2022/03/10 05:45:07;;;;;;;20.60;7.65;;;0.40;99.90;;;;;;4842560;29;20513;-76
2022/03/10 05:47:32;;;;;;;18.25;7.88;;;0.40;99.90;;;;;;4842796;29;20050;-77
2022/03/10 05:49:58;;;;;;;19.90;6.93;;;0.40;99.90;;;;;;4842892;29;20050;-76
2022/03/10 05:52:24;;;;;;;18.17;8.38;;;0.40;99.90;;;;;;4842678;29;20049;-75
2022/03/10 05:54:49;;;;;;;17.25;7.30;;;0.40;99.90;;;;;;4842642;29;20475;-76
2022/03/10 05:57:15;;;;;;;18.92;8.85;;;0.90;99.90;;;;;;4810687;29;20605;-76
2022/03/10 05:59:41;;;;;;;20.65;8.98;;;0.30;99.90;;;;;;4842185;29;20166;-77
2022/03/10 06:02:07;;;;;;;18.27;8.00;;;0.30;99.90;;;;;;4842720;29;20083;-76
2022/03/10 06:04:32;;;;;;;20.50;8.75;;;0.30;99.90;;;;;;4842818;29;20053;-77
2022/03/10 06:06:59;;;;;;;18.17;8.75;;;0.30;99.90;;;;;;4841451;29;20053;-77
2022/03/10 06:09:32;;;;;;;21.35;9.63;;;0.30;99.90;;;;;;4843763;29;20053;-78
2022/03/10 06:11:59;;;;;;;19.95;9.02;;;0.40;99.90;;;;;;4826001;29;20042;-77
2022/03/10 06:14:25;;;;;;;20.23;9.68;;;0.30;99.90;;;;;;4825557;29;20061;-78
2022/03/10 06:16:50;;;;;;;20.58;9.27;;;0.30;99.90;;;;;;4842299;29;20133;-77
2022/03/10 06:19:16;;;;;;;23.17;9.02;;;0.30;99.90;;;;;;4856356;29;20129;-77
2022/03/10 06:21:42;;;;;;;21.08;9.23;;;1.30;99.90;;;;;;4841057;29;20513;-75
2022/03/10 06:24:07;;;;;;;21.80;9.50;;;0.30;99.90;;;;;;4842092;29;20120;-78
2022/03/10 06:26:36;;;;;;;24.77;9.32;;;0.30;99.90;;;;;;4841914;29;20053;-76
2022/03/10 06:29:04;;;;;;;19.75;9.23;;;0.40;99.90;;;;;;4842256;29;20493;-73
2022/03/10 06:31:30;;;;;;;23.80;10.35;;;0.40;99.90;;;;;;4846095;29;20125;-75
2022/03/10 06:33:57;;;;;;;19.55;9.45;;;0.40;99.90;;;;;;4834646;29;20075;-77
2022/03/10 06:36:23;;;;;;;21.33;9.82;;;0.50;99.90;;;;;;4832303;29;20105;-75
2022/03/10 06:38:48;;;;;;;21.33;9.93;;;0.60;99.90;;;;;;4839021;29;20455;-77
2022/03/10 06:41:14;;;;;;;19.48;9.43;;;0.70;99.90;;;;;;4824498;29;20447;-76
2022/03/10 06:43:39;;;;;;;22.83;10.52;;;0.70;99.90;;;;;;4825303;29;20096;-78
2022/03/10 06:46:05;;;;;;;22.70;9.77;;;0.80;99.90;;;;;;4841578;29;20411;-77
2022/03/10 06:48:31;;;;;;;18.73;9.10;;;0.90;99.90;;;;;;4809907;29;20057;-78
2022/03/10 06:50:57;;;;;;;22.63;10.48;;;1.00;99.90;;;;;;4842156;29;20069;-78
2022/03/10 06:53:22;;;;;;;21.15;9.57;;;1.10;99.90;;;;;;4841819;29;20042;-78
2022/03/10 06:55:48;;;;;;;17.55;8.60;;;2.00;99.90;;;;;;4843634;29;20098;-78
2022/03/10 06:58:13;;;;;;;20.05;9.93;;;1.20;99.90;;;;;;4829207;29;20054;-78
2022/03/10 07:00:39;;;;;;;21.05;10.68;;;1.30;99.90;;;;;;4845403;29;20093;-75
2022/03/10 07:03:05;;;;;;;20.15;9.45;;;1.40;99.90;;;;;;4813941;29;20054;-77
2022/03/10 07:05:30;;;;;;;18.92;9.20;;;1.40;99.90;;;;;;4845520;29;20050;-77
2022/03/10 07:07:56;;;;;;;19.80;9.63;;;1.50;99.90;;;;;;4845692;29;20042;-78
2022/03/10 07:10:22;;;;;;;17.55;8.60;;;1.50;99.90;;;;;;4829048;29;20181;-77
2022/03/10 07:12:48;;;;;;;19.35;9.63;;;1.60;99.90;;;;;;4845463;29;20038;-78
2022/03/10 07:15:14;;;;;;;22.38;9.77;;;2.30;99.90;;;;;;4844657;29;20050;-78
2022/03/10 07:17:41;;;;;;;21.17;10.02;;;1.70;99.90;;;;;;4845036;29;20049;-75
2022/03/10 07:20:08;;;;;;;22.10;9.57;;;1.80;99.90;;;;;;4840279;29;20095;-76
2022/03/10 07:22:34;;;;;;;19.00;9.82;;;1.80;99.90;;;;;;4837093;29;20057;-74
2022/03/10 07:25:00;;;;;;;24.58;10.98;;;1.90;99.90;;;;;;4834964;29;20501;-77
2022/03/10 07:27:26;;;;;;;21.98;10.18;;;1.90;99.90;;;;;;4813978;29;20066;-76
2022/03/10 07:29:52;;;;;;;21.60;10.52;;;2.00;99.90;;;;;;4825881;29;20046;-72
2022/03/10 07:32:18;;;;;;;22.80;10.52;;;2.10;99.90;;;;;;4825762;29;20042;-77
2022/03/10 07:34:47;;;;;;;22.15;10.23;;;2.10;99.90;;;;;;4824738;29;20137;-75
2022/03/10 07:37:14;;;;;;;21.85;10.75;;;2.20;99.90;;;;;;4825801;29;20459;-79
2022/03/10 07:39:41;;;;;;;19.02;9.27;;;2.20;99.90;;;;;;4825961;29;20054;-78
2022/03/10 07:42:08;;;;;;;20.52;10.25;;;2.20;99.90;;;;;;4813084;29;20050;-79
2022/03/10 07:44:33;;;;;;;21.40;10.23;;;2.30;99.90;;;;;;4798625;29;20526;-76
2022/03/10 07:46:59;;;;;;;17.77;10.00;;;2.40;99.90;;;;;;4828781;29;20054;-77
2022/03/10 07:49:25;;;;;;;19.20;10.30;;;2.50;99.90;;;;;;4828928;29;20054;-77
2022/03/10 07:51:50;;;;;;;18.52;10.32;;;2.50;99.90;;;;;;4824924;29;20125;-76
2022/03/10 07:54:16;;;;;;;21.83;10.68;;;2.60;99.90;;;;;;4825926;29;20500;-80
2022/03/10 07:56:42;;;;;;;22.02;10.48;;;2.70;99.90;;;;;;4794825;29;20190;-85
2022/03/10 07:59:08;;;;;;;22.55;9.85;;;2.80;99.90;;;;;;4825239;29;20051;-81
2022/03/10 08:01:33;;;;;;;22.20;11.35;;;2.90;99.90;;;;;;4779460;29;20456;-79
2022/03/10 08:03:59;;;;;;;23.05;11.25;;;2.90;99.90;;;;;;4824188;29;20086;-81
2022/03/10 08:06:26;;;;;;;23.10;11.40;;;3.90;99.90;;;;;;4816974;29;20053;-85
2022/03/10 08:08:52;;;;;;;21.25;10.52;;;3.10;99.90;;;;;;4826656;29;20058;-86
2022/03/10 08:11:18;;;;;;;20.98;10.60;;;3.20;99.90;;;;;;4843370;29;20057;-87
2022/03/10 08:13:44;;;;;;;24.23;10.73;;;3.30;99.90;;;;;;4844235;29;20046;-85
2022/03/10 08:16:10;;;;;;;21.75;11.07;;;3.40;99.90;;;;;;4828927;29;20093;-84
2022/03/10 08:18:37;;;;;;;22.05;11.18;;;3.50;99.90;;;;;;4844511;29;20078;-85
2022/03/10 08:21:03;;;;;;;22.80;11.52;;;3.60;99.90;;;;;;4845556;29;20050;-87
2022/03/10 08:23:29;;;;;;;20.55;10.05;;;3.80;99.90;;;;;;4843866;29;20098;-85
2022/03/10 08:25:55;;;;;;;21.83;11.02;;;3.90;99.90;;;;;;4843209;29;20058;-85
2022/03/10 08:28:21;;;;;;;23.10;11.20;;;4.00;99.90;;;;;;4826991;29;20075;-84
2022/03/10 08:30:47;;;;;;;20.85;11.25;;;4.10;99.90;;;;;;4827055;29;20054;-87
2022/03/10 08:33:12;;;;;;;21.35;10.90;;;4.30;99.90;;;;;;4805692;29;20052;-83
2022/03/10 08:35:38;;;;;;;20.70;11.10;;;4.40;99.90;;;;;;4842645;29;20092;-84
2022/03/10 08:38:04;;;;;;;21.55;10.50;;;5.60;99.90;;;;;;4809756;29;20484;-85
2022/03/10 08:40:29;;;;;;;20.45;9.15;;;5.80;99.90;;;;;;4838944;29;20117;-86
2022/03/10 08:42:55;;;;;;;21.23;9.35;;;5.80;99.90;;;;;;4822155;29;20490;-82
2022/03/10 08:45:25;;;;;;;17.60;8.65;;;4.90;99.90;;;;;;4837313;29;20070;-87
2022/03/10 08:47:59;;;;;;;17.58;9.07;;;5.00;99.90;;;;;;4818970;29;20186;-87
2022/03/10 08:50:25;;;;;;;20.10;8.85;;;4.70;99.90;;;;;;4826854;29;20050;-83
2022/03/10 08:52:52;;;;;;;17.88;7.47;;;5.80;99.90;;;;;;4837906;29;20046;-86
2022/03/10 08:55:17;;;;;;;16.63;8.25;;;6.30;99.90;;;;;;4825453;29;20058;-89
2022/03/10 08:57:43;;;;;;;17.73;7.55;;;5.60;99.90;;;;;;4844781;29;20065;-84
2022/03/10 09:00:10;;;;;;;15.50;7.50;;;5.80;99.90;;;;;;4841561;29;20452;-83
2022/03/10 09:02:36;;;;;;;17.02;7.32;;;5.90;99.90;;;;;;4809954;29;20081;-80
2022/03/10 09:05:02;;;;;;;19.10;8.40;;;6.10;99.90;;;;;;4844941;29;20042;-88
2022/03/10 09:07:28;;;;;;;17.48;8.25;;;6.20;99.90;;;;;;4830007;29;20115;-83
2022/03/10 09:09:53;;;;;;;16.95;8.13;;;6.30;99.90;;;;;;4822142;29;20176;-81
2022/03/10 09:12:19;;;;;;;18.17;7.68;;;6.50;99.90;;;;;;4824065;29;20388;-82
2022/03/10 09:14:45;;;;;;;19.70;8.57;;;7.00;99.90;;;;;;4840388;29;20050;-82
2022/03/10 09:17:10;;;;;;;21.25;7.57;;;6.90;99.90;;;;;;4824270;29;20479;-84
2022/03/10 09:19:36;;;;;;;22.02;7.55;;;7.20;99.90;;;;;;4822699;29;20086;-81
2022/03/10 09:22:02;;;;;;;19.85;7.53;;;7.50;99.90;;;;;;4839673;29;20050;-84
2022/03/10 09:24:31;;;;;;;18.30;8.60;;;7.90;99.90;;;;;;4809066;29;20049;-80
2022/03/10 09:26:57;;;;;;;15.30;7.35;;;8.00;99.90;;;;;;4809780;29;20103;-83
2022/03/10 09:29:23;;;;;;;16.55;7.18;;;8.10;99.90;;;;;;4807955;29;20078;-85
2022/03/10 09:31:49;;;;;;;19.58;8.05;;;8.20;99.90;;;;;;4840325;29;20046;-86
2022/03/10 09:34:15;;;;;;;16.30;7.53;;;8.30;99.90;;;;;;4824168;29;20400;-81
2022/03/10 09:36:41;;;;;;;16.13;7.10;;;8.40;97.90;;;;;;4840507;29;20389;-85
2022/03/10 09:39:06;;;;;;;14.70;6.40;;;8.50;91.70;;;;;;4807368;29;20481;-80
2022/03/10 09:41:32;;;;;;;16.05;7.20;;;8.60;91.40;;;;;;4824059;29;20072;-82
2022/03/10 09:43:59;;;;;;;15.63;7.25;;;9.40;86.90;;;;;;4823996;29;20082;-82
2022/03/10 09:46:25;;;;;;;16.33;6.20;;;8.90;85.00;;;;;;4823910;29;20181;-82
2022/03/10 09:48:52;;;;;;;18.13;7.72;;;9.00;87.80;;;;;;4822800;29;20058;-83
2022/03/10 09:51:22;;;;;;;17.13;6.57;;;9.60;91.10;;;;;;4823453;29;20083;-82
2022/03/10 09:53:47;;;;;;;16.90;7.60;;;9.20;87.90;;;;;;4823408;29;20061;-85
2022/03/10 09:56:14;;;;;;;17.95;6.85;;;9.40;83.70;;;;;;4808400;29;20054;-81
2022/03/10 09:58:39;;;;;;;16.23;6.78;;;9.40;84.80;;;;;;4823695;29;20125;-82
2022/03/10 10:01:08;;;;;;;16.70;7.45;;;10.00;81.00;;;;;;4822039;29;21031;-81
2022/03/10 10:03:34;;;;;;;13.35;6.22;;;9.70;82.80;;;;;;4824120;29;20056;-79
2022/03/10 10:06:02;;;;;;;14.80;6.68;;;9.70;80.10;;;;;;4823291;29;20050;-79
2022/03/10 10:08:31;;;;;;;13.52;6.18;;;9.90;75.60;;;;;;4840054;29;20046;-77
2022/03/10 10:11:00;;;;;;;17.50;7.35;;;10.00;75.40;;;;;;4821702;29;20714;-79
2022/03/10 10:13:39;;;;;;;13.10;6.40;;;10.10;74.60;;;;;;4840062;29;20053;-80
2022/03/10 10:16:11;;;;;;;13.18;6.10;;;10.20;73.60;;;;;;4837983;29;20530;-79
2022/03/10 10:18:38;;;;;;;17.30;6.68;;;11.10;74.20;;;;;;4824076;29;20405;-83
2022/03/10 10:21:06;;;;;;;15.40;6.43;;;10.40;74.50;;;;;;4821480;29;20069;-80
2022/03/10 10:23:35;;;;;;;16.67;6.90;;;10.80;72.60;;;;;;4807983;29;20065;-84
2022/03/10 10:26:03;;;;;;;18.33;6.90;;;10.60;71.80;;;;;;4839603;29;20181;-77
2022/03/10 10:28:34;;;;;;;19.05;6.78;;;11.00;71.10;;;;;;4823023;29;20050;-85
2022/03/10 10:31:00;;;;;;;15.20;7.03;;;11.40;69.90;;;;;;4820977;29;20074;-80
2022/03/10 10:33:27;;;;;;;17.20;7.88;;;10.90;69.70;;;;;;4840079;29;20222;-73
2022/03/10 10:36:12;;;;;;;15.13;7.32;;;10.90;67.90;;;;;;4839258;29;20060;-82
2022/03/10 10:38:39;;;;;;;16.17;6.82;;;11.00;66.60;;;;;;4821263;29;20140;-86
2022/03/10 10:41:28;;;;;;;14.60;6.13;;;11.60;69.10;;;;;;4837910;29;20058;-76
2022/03/10 10:44:15;;;;;;;14.32;6.68;;;11.20;65.20;;;;;;4838995;29;20125;-88
2022/03/10 10:46:43;;;;;;;19.70;7.65;;;11.40;65.20;;;;;;4839154;29;20062;-75
2022/03/10 10:49:12;;;;;;;15.00;6.97;;;11.30;65.30;;;;;;4837676;29;20054;-80
2022/03/10 10:51:46;;;;;;;16.38;6.82;;;11.30;63.40;;;;;;4821432;29;20046;-82
2022/03/10 10:54:21;;;;;;;15.55;6.72;;;11.40;64.80;;;;;;4838314;29;20061;-80
2022/03/10 10:56:58;;;;;;;15.68;6.80;;;11.70;61.90;;;;;;4838724;29;20564;-88
2022/03/10 10:59:30;;;;;;;16.40;6.35;;;11.50;60.20;;;;;;4821117;29;20086;-79
2022/03/10 11:02:17;;;;;;;13.27;6.93;;;11.70;62.60;;;;;;4838808;29;21053;-75
2022/03/10 11:04:48;;;;;;;13.35;6.78;;;11.80;61.60;;;;;;4839256;29;20542;-87
2022/03/10 11:07:15;;;;;;;15.50;6.93;;;11.90;60.10;;;;;;4838832;29;20050;-88
2022/03/10 11:09:43;;;;;;;18.65;5.82;;;12.00;62.60;;;;;;4837633;29;20085;-90
2022/03/10 11:12:10;;;;;;;13.27;5.78;;;12.00;60.40;;;;;;4838419;29;20057;-84
2022/03/10 11:14:37;;;;;;;16.15;6.80;;;12.10;62.00;;;;;;4838520;29;20045;-79
2022/03/10 11:17:03;;;;;;;15.25;6.53;;;12.20;58.70;;;;;;4823306;29;20138;-90
2022/03/10 11:19:56;;;;;;;17.98;6.85;;;12.30;61.00;;;;;;4836968;29;20554;-84
2022/03/10 11:22:55;;;;;;;14.43;5.97;;;12.30;59.40;;;;;;4745773;30;20072;-85
2022/03/10 11:25:33;;;;;;;13.18;5.97;;;12.50;57.80;;;;;;4738449;30;20056;-85
2022/03/10 11:28:09;;;;;;;14.40;6.03;;;12.70;60.40;;;;;;4730312;30;20097;-85
2022/03/10 11:30:35;;;;;;;15.68;6.80;;;12.70;57.60;;;;;;4735968;30;20446;-81
2022/03/10 11:33:02;;;;;;;15.05;6.28;;;12.80;56.80;;;;;;4730277;30;20071;-84
2022/03/10 11:35:36;;;;;;;14.40;5.90;;;13.00;60.00;;;;;;4722890;30;20514;-88
2022/03/10 11:38:02;;;;;;;17.58;6.00;;;13.00;58.80;;;;;;4730414;30;20230;-90
2022/03/10 11:40:54;;;;;;;14.52;6.55;;;13.10;59.10;;;;;;4714929;30;20151;-87
2022/03/10 11:43:25;;;;;;;15.75;6.68;;;13.10;54.30;;;;;;4732846;30;20146;-88
2022/03/10 11:45:52;;;;;;;15.50;7.03;;;13.20;57.30;;;;;;4740413;30;20112;-82
2022/03/10 11:48:23;;;;;;;16.33;7.30;;;13.30;55.30;;;;;;4750047;30;20471;-89
2022/03/10 11:50:52;;;;;;;13.67;6.57;;;13.40;54.30;;;;;;4746997;30;20056;-84
2022/03/10 11:53:18;;;;;;;16.10;7.03;;;13.50;56.50;;;;;;4733903;30;20839;-85
2022/03/10 11:55:52;;;;;;;14.82;6.75;;;13.60;57.30;;;;;;4734830;30;20056;-86
2022/03/10 11:58:18;;;;;;;21.30;7.95;;;13.70;54.10;;;;;;4747884;29;20058;-86
2022/03/10 12:00:44;;;;;;;17.05;6.15;;;13.80;54.30;;;;;;4841027;29;20058;-86
2022/03/10 12:03:10;;;;;;;16.77;7.72;;;14.00;56.20;;;;;;4841520;29;20487;-86
2022/03/10 12:06:15;;;;;;;23.23;7.90;;;14.00;53.90;;;;;;4825567;29;20046;-90
2022/03/10 12:09:01;;;;;;;17.65;7.75;;;14.00;52.50;;;;;;4712991;30;20068;-91
2022/03/10 12:11:46;;;;;;;14.60;7.32;;;14.10;54.50;;;;;;4745340;30;20110;-86
2022/03/10 12:14:31;;;;;;;15.75;6.45;;;14.20;53.80;;;;;;4740892;30;20099;-86
2022/03/10 12:16:57;;;;;;;16.02;7.32;;;14.30;53.80;;;;;;4738996;30;20107;-85
2022/03/10 12:23:03;;;;;;;15.43;6.50;;;14.50;53.60;;;;;;4738222;30;20052;-79
2022/03/10 12:25:35;;;;;;;13.70;6.18;;;14.70;53.40;;;;;;4742681;30;20080;-79
2022/03/10 12:28:01;;;;;;;20.17;7.15;;;14.70;55.90;;;;;;4739726;30;20559;-79
2022/03/10 12:30:28;;;;;;;17.23;7.15;;;14.70;53.20;;;;;;4739306;30;20139;-79
2022/03/10 12:32:56;;;;;;;20.17;11.25;;;14.70;52.00;;;;;;4745822;30;20198;-79
2022/03/10 12:35:30;;;;;;;16.70;8.75;;;14.70;51.90;;;;;;4739720;30;20406;-77
2022/03/10 12:37:56;;;;;;;17.50;9.57;;;14.80;52.40;;;;;;4732818;30;20530;-79
2022/03/10 12:40:27;;;;;;;18.08;10.20;;;14.80;53.00;;;;;;4741269;30;20106;-79
2022/03/10 12:43:04;;;;;;;17.90;8.98;;;15.00;53.90;;;;;;4733803;30;20091;-79
2022/03/10 12:45:30;;;;;;;19.08;9.70;;;15.00;53.20;;;;;;4824553;29;20537;-79
2022/03/10 12:48:01;;;;;;;19.95;9.55;;;15.00;50.90;;;;;;4841852;29;20063;-79
2022/03/10 12:50:27;;;;;;;16.15;8.13;;;15.10;49.30;;;;;;4840700;29;20050;-78
2022/03/10 12:52:55;;;;;;;19.58;9.75;;;15.10;48.10;;;;;;4825275;29;20452;-77